Agios_nektarios — SW6453 — position and weather

sailwx.info

Track history (hours):
 
Tides and Currents Weather Stations Pressure Air Temp Water Temp Dewpoint Dewpoint Depression Visibility Wind Speed Wind Dir Waves Ship Positions

Agios_nektarios

Last reported at 2018-Apr-19 15:24 UTC. Time now 2018-Apr-19 15:44 UTC.
Position N 37°56' E 023°38'.

Length 53 m; draft 4.9 m.

Type: Tanker. MMSI: 237183800.

Date/timePositionNaut miles runAvg speedWind from/ knotsBaromVisibWave heightAir tempDewpointWater temp
2018-Apr-19 15:24N 37°56' E 023°38'0 0.2
2018-Apr-19 15:00N 37°56' E 023°38'2 4.8
2018-Apr-19 14:30N 37°57' E 023°35'3 5.1
2018-Apr-19 14:00N 37°59' E 023°33'3 5.9
2018-Apr-19 13:30N 38°01' E 023°35'1 0.2
2018-Apr-19 10:47N 38°02' E 023°36'0 0.0
2018-Apr-19 10:26N 38°02' E 023°36'0 0.0
2018-Apr-19 09:56N 38°02' E 023°36'0 0.0
2018-Apr-19 09:29N 38°02' E 023°36'0 0.0
2018-Apr-19 08:44N 38°02' E 023°36'0 0.0
2018-Apr-19 08:29N 38°02' E 023°36'0 0.0
2018-Apr-19 07:50N 38°02' E 023°36'0 0.0
2018-Apr-19 07:29N 38°02' E 023°36'0 0.0
2018-Apr-19 06:59N 38°02' E 023°36'1 1.3
2018-Apr-19 06:29N 38°02' E 023°35'0 0.1
2018-Apr-19 04:49N 38°02' E 023°35'0 0.0
2018-Apr-19 04:19N 38°02' E 023°35'0 0.1
2018-Apr-19 03:55N 38°02' E 023°35'0 0.0
2018-Apr-19 02:43N 38°02' E 023°35'0 0.0
2018-Apr-19 02:25N 38°02' E 023°35'0 0.0
2018-Apr-19 01:52N 38°02' E 023°35'0 0.0
2018-Apr-19 01:16N 38°02' E 023°35'0 0.0
2018-Apr-19 00:55N 38°02' E 023°35'0 0.0
2018-Apr-19 00:25N 38°02' E 023°35'0 0.0
2018-Apr-18 23:55N 38°02' E 023°35'0 0.0
2018-Apr-18 23:22N 38°02' E 023°35'0 0.0
2018-Apr-18 22:55N 38°02' E 023°35'0 0.0
2018-Apr-18 21:40N 38°02' E 023°35'0 0.0
2018-Apr-18 21:13N 38°02' E 023°35'0 0.0
2018-Apr-18 20:55N 38°02' E 023°35'0 0.0
2018-Apr-18 20:25N 38°02' E 023°35'0 0.0
2018-Apr-18 19:52N 38°02' E 023°35'0 0.0
2018-Apr-18 19:25N 38°02' E 023°35'0 0.0
2018-Apr-18 15:52N 38°02' E 023°35'1 2.9
2018-Apr-18 15:30N 38°01' E 023°34'3 6.8
2018-Apr-18 15:00N 37°57' E 023°33'3 4.7
2018-Apr-18 14:25N 37°58' E 023°37'0 0.0
2018-Apr-18 14:00N 37°58' E 023°37'0 0.0
2018-Apr-18 13:28N 37°58' E 023°37'0 0.0
2018-Apr-18 12:58N 37°58' E 023°37'0 0.0
2018-Apr-18 12:25N 37°58' E 023°37'2 6.1
2018-Apr-18 12:01N 37°56' E 023°34'4 7.4
2018-Apr-18 11:30N 37°52' E 023°33'0 0.3
2018-Apr-18 10:59N 37°52' E 023°33'0 0.0
2018-Apr-18 10:23N 37°52' E 023°33'0 0.0
2018-Apr-18 09:53N 37°52' E 023°33'0 0.1
2018-Apr-18 09:26N 37°52' E 023°33'0 0.0
2018-Apr-18 08:59N 37°52' E 023°33'0 0.2
2018-Apr-18 08:29N 37°52' E 023°33'0 0.1
2018-Apr-18 07:59N 37°52' E 023°33'0 0.0
2018-Apr-18 07:29N 37°52' E 023°33'0 0.2
2018-Apr-18 06:46N 37°52' E 023°33'1 3.4
2018-Apr-18 06:30N 37°53' E 023°33'3 6.6
2018-Apr-18 06:00N 37°56' E 023°35'2 4.4
2018-Apr-18 05:30N 37°58' E 023°37'0 0.0
2018-Apr-18 05:00N 37°58' E 023°37'0 0.0
2018-Apr-18 04:30N 37°58' E 023°37'0 0.0
2018-Apr-18 04:00N 37°58' E 023°37'0 0.0
2018-Apr-18 03:30N 37°58' E 023°37'0 0.0
2018-Apr-18 03:00N 37°58' E 023°37'0 0.0
2018-Apr-18 02:30N 37°58' E 023°37'0 0.0
2018-Apr-18 02:00N 37°58' E 023°37'0 0.0
2018-Apr-18 01:27N 37°58' E 023°37'0 0.0
2018-Apr-18 01:00N 37°58' E 023°37'0 0.0
2018-Apr-18 00:30N 37°58' E 023°37'0 0.0
2018-Apr-18 00:00N 37°58' E 023°37'0 0.0
2018-Apr-17 23:30N 37°58' E 023°37'0 0.0
2018-Apr-17 23:00N 37°58' E 023°37'0 0.0
2018-Apr-17 22:30N 37°58' E 023°37'0 0.0
2018-Apr-17 22:00N 37°58' E 023°37'0 0.0
2018-Apr-17 21:30N 37°58' E 023°37'0 0.0
2018-Apr-17 21:00N 37°58' E 023°37'0 0.0
2018-Apr-17 20:30N 37°58' E 023°37'0 0.0
2018-Apr-17 20:00N 37°58' E 023°37'0 0.0
2018-Apr-17 19:30N 37°58' E 023°37'0 0.0
2018-Apr-17 19:00N 37°58' E 023°37'0 0.0
2018-Apr-17 18:30N 37°58' E 023°37'0 0.0
2018-Apr-17 18:00N 37°58' E 023°37'0 0.0
2018-Apr-17 17:30N 37°58' E 023°37'0 0.0
2018-Apr-17 17:00N 37°58' E 023°37'0 0.0
2018-Apr-17 16:30N 37°58' E 023°37'0 0.0
2018-Apr-17 16:00N 37°58' E 023°37'0 0.0
2018-Apr-17 15:30N 37°58' E 023°37'0 0.0
2018-Apr-17 15:00N 37°58' E 023°37'0 0.0
2018-Apr-17 14:30N 37°58' E 023°37'0 0.0
2018-Apr-17 13:57N 37°58' E 023°37'0 0.0
2018-Apr-17 13:30N 37°58' E 023°37'0 0.0
2018-Apr-17 13:00N 37°58' E 023°37'0 0.0
2018-Apr-17 12:30N 37°58' E 023°37'2 3.1
2018-Apr-17 12:00N 37°57' E 023°35'0 0.0
2018-Apr-17 11:30N 37°57' E 023°35'0 0.0
2018-Apr-17 10:45N 37°57' E 023°35'0 0.0
2018-Apr-17 10:30N 37°57' E 023°35'0 0.0
2018-Apr-17 09:57N 37°57' E 023°35'0 0.0
2018-Apr-17 09:30N 37°57' E 023°35'0 0.0
2018-Apr-17 09:00N 37°57' E 023°35'0 0.0
2018-Apr-17 08:30N 37°57' E 023°35'0 0.0
2018-Apr-17 07:58N 37°57' E 023°35'0 0.5
2018-Apr-17 07:30N 37°57' E 023°35'3 4.7
2018-Apr-17 06:58N 37°57' E 023°38'0 0.0
2018-Apr-17 06:28N 37°57' E 023°38'0 0.0
2018-Apr-17 05:58N 37°57' E 023°38'0 0.0
2018-Apr-17 05:28N 37°57' E 023°38'2 3.6
2018-Apr-17 05:01N 37°57' E 023°36'1 1.7
2018-Apr-17 04:28N 37°58' E 023°37'0 0.0
2018-Apr-17 03:55N 37°58' E 023°37'0 0.0
2018-Apr-17 03:28N 37°58' E 023°37'0 0.0
2018-Apr-17 02:58N 37°58' E 023°37'0 0.0
2018-Apr-17 02:28N 37°58' E 023°37'0 0.0
2018-Apr-17 01:58N 37°58' E 023°37'0 0.0
2018-Apr-17 01:28N 37°58' E 023°37'0 0.0
2018-Apr-17 00:58N 37°58' E 023°37'0 0.0
2018-Apr-17 00:28N 37°58' E 023°37'0 0.0
2018-Apr-16 23:58N 37°58' E 023°37'0 0.0
2018-Apr-16 23:28N 37°58' E 023°37'0 0.0
2018-Apr-16 22:58N 37°58' E 023°37'0 0.0
2018-Apr-16 22:28N 37°58' E 023°37'0 0.0
2018-Apr-16 21:58N 37°58' E 023°37'0 0.0
2018-Apr-16 21:28N 37°58' E 023°37'0 0.0
2018-Apr-16 20:58N 37°58' E 023°37'0 0.0
2018-Apr-16 20:25N 37°58' E 023°37'0 0.0
2018-Apr-16 19:58N 37°58' E 023°37'0 0.0
2018-Apr-16 19:25N 37°58' E 023°37'0 0.0
2018-Apr-16 18:58N 37°58' E 023°37'0 0.0
2018-Apr-16 18:28N 37°58' E 023°37'0 0.0
2018-Apr-16 17:58N 37°58' E 023°37'0 0.0
2018-Apr-16 17:28N 37°58' E 023°37'0 0.0
2018-Apr-16 16:58N 37°58' E 023°37'0 0.0
2018-Apr-16 16:28N 37°58' E 023°37'0 0.0
2018-Apr-16 15:58N 37°58' E 023°37'0 0.0
2018-Apr-16 15:28N 37°58' E 023°37'0 0.0
2018-Apr-16 14:58N 37°58' E 023°37'0 1.0
2018-Apr-16 14:30N 37°57' E 023°36'3 5.4
2018-Apr-16 14:00N 37°58' E 023°33'3 5.2
2018-Apr-16 13:30N 38°00' E 023°32'1 0.6
2018-Apr-16 12:02N 38°01' E 023°32'0 0.2
2018-Apr-16 11:44N 38°01' E 023°32'0 1.3
2018-Apr-16 11:30N 38°01' E 023°32'1 0.9
2018-Apr-16 10:53N 38°01' E 023°31'1 3.5
2018-Apr-16 10:30N 38°00' E 023°32'3 5.7
2018-Apr-16 10:00N 37°57' E 023°33'3 4.7
2018-Apr-16 09:27N 37°57' E 023°37'0 0.2
2018-Apr-16 09:00N 37°58' E 023°37'0 0.0
2018-Apr-16 08:27N 37°58' E 023°37'0 0.0
2018-Apr-16 08:00N 37°58' E 023°37'0 0.0
2018-Apr-16 07:27N 37°58' E 023°37'0 0.0
2018-Apr-16 07:00N 37°58' E 023°37'0 0.0
2018-Apr-16 06:30N 37°58' E 023°37'0 0.0
2018-Apr-16 06:00N 37°58' E 023°37'0 0.0
2018-Apr-14 05:47N 37°57' E 023°36'1 5.2
2018-Apr-14 05:30N 37°57' E 023°35'2 4.8
2018-Apr-14 05:00N 37°59' E 023°33'2 3.1
2018-Apr-14 04:30N 38°00' E 023°34'2 0.3
2018-Apr-13 20:53N 38°02' E 023°36'1 0.1
2018-Apr-13 16:08N 38°02' E 023°35'0 0.0
2018-Apr-13 14:41N 38°02' E 023°35'0 0.8
2018-Apr-13 14:29N 38°02' E 023°35'1 0.8
2018-Apr-13 13:46N 38°01' E 023°35'1 0.2
2018-Apr-13 10:14N 38°02' E 023°35'1 5.3
2018-Apr-13 10:00N 38°01' E 023°34'3 6.7
2018-Apr-13 09:30N 37°57' E 023°33'2 4.1
2018-Apr-13 09:00N 37°57' E 023°36'2 3.5
2018-Apr-13 08:26N 37°57' E 023°38'0 0.0
2018-Apr-13 07:59N 37°57' E 023°38'0 0.0
2018-Apr-13 07:26N 37°57' E 023°38'0 0.0
2018-Apr-13 06:58N 37°57' E 023°38'0 0.0
2018-Apr-13 06:28N 37°57' E 023°38'0 0.0
2018-Apr-13 05:58N 37°57' E 023°38'1 2.4
2018-Apr-13 05:30N 37°56' E 023°37'1 2.3
2018-Apr-13 05:00N 37°58' E 023°37'0 0.0
2018-Apr-13 04:29N 37°58' E 023°37'0 0.0
2018-Apr-13 03:59N 37°58' E 023°37'0 0.0
2018-Apr-13 03:26N 37°58' E 023°37'0 0.0
2018-Apr-13 02:59N 37°58' E 023°37'0 0.0
2018-Apr-13 02:29N 37°58' E 023°37'0 0.0
2018-Apr-13 01:59N 37°58' E 023°37'0 0.0
2018-Apr-13 01:29N 37°58' E 023°37'0 0.0
2018-Apr-13 00:59N 37°58' E 023°37'0 0.0
2018-Apr-13 00:29N 37°58' E 023°37'0 0.0
2018-Apr-12 23:59N 37°58' E 023°37'0 0.0
2018-Apr-12 23:29N 37°58' E 023°37'0 0.0
2018-Apr-12 22:59N 37°58' E 023°37'0 0.0
2018-Apr-12 22:29N 37°58' E 023°37'0 0.0
2018-Apr-12 21:59N 37°58' E 023°37'0 0.0
2018-Apr-12 21:29N 37°58' E 023°37'0 0.0
2018-Apr-12 20:56N 37°58' E 023°37'0 0.0
2018-Apr-12 20:29N 37°58' E 023°37'0 0.0
2018-Apr-12 19:59N 37°58' E 023°37'0 0.0
2018-Apr-12 19:29N 37°58' E 023°37'0 0.0
2018-Apr-12 18:59N 37°58' E 023°37'0 0.0
2018-Apr-12 18:29N 37°58' E 023°37'0 0.0
2018-Apr-12 17:53N 37°58' E 023°37'0 0.0
2018-Apr-12 17:26N 37°58' E 023°37'0 0.0
2018-Apr-12 16:59N 37°58' E 023°37'0 0.0
2018-Apr-12 16:29N 37°58' E 023°37'0 0.1
2018-Apr-12 16:00N 37°57' E 023°37'1 2.3
2018-Apr-12 15:30N 37°56' E 023°37'1 2.1
2018-Apr-12 14:59N 37°57' E 023°38'0 0.0
2018-Apr-12 14:25N 37°57' E 023°38'0 0.0
2018-Apr-12 13:58N 37°57' E 023°38'0 0.0
2018-Apr-12 13:25N 37°57' E 023°38'0 0.0
2018-Apr-12 12:56N 37°57' E 023°38'0 0.0
2018-Apr-12 12:24N 37°57' E 023°38'0 0.2
2018-Apr-12 12:00N 37°57' E 023°38'0 0.0
2018-Apr-12 11:30N 37°57' E 023°38'0 0.0
2018-Apr-12 11:00N 37°57' E 023°38'0 0.0
2018-Apr-12 10:30N 37°57' E 023°38'0 0.0
2018-Apr-12 10:00N 37°57' E 023°38'0 0.0
2018-Apr-12 09:30N 37°57' E 023°38'0 0.2
2018-Apr-12 09:00N 37°57' E 023°38'0 0.0
2018-Apr-12 08:30N 37°57' E 023°38'0 0.0
2018-Apr-12 08:00N 37°57' E 023°38'0 0.0
2018-Apr-12 07:27N 37°57' E 023°38'0 0.1
2018-Apr-12 07:01N 37°57' E 023°38'2 4.7
2018-Apr-12 06:30N 37°57' E 023°35'3 5.2
2018-Apr-12 06:00N 37°59' E 023°33'3 5.7
2018-Apr-12 05:30N 38°01' E 023°35'1 0.2
2018-Apr-12 00:29N 38°02' E 023°36'1 0.1
2018-Apr-11 18:41N 38°02' E 023°35'1 5.2
2018-Apr-11 18:30N 38°01' E 023°34'3 6.3
2018-Apr-11 18:00N 37°58' E 023°33'3 6.2
2018-Apr-11 17:31N 37°57' E 023°36'1 2.8
2018-Apr-11 16:58N 37°57' E 023°38'0 0.0
2018-Apr-11 16:28N 37°57' E 023°38'0 0.0
2018-Apr-11 15:58N 37°57' E 023°38'0 0.0
2018-Apr-11 15:22N 37°57' E 023°38'0 0.0
2018-Apr-11 14:58N 37°57' E 023°38'0 0.2
2018-Apr-11 14:30N 37°57' E 023°38'1 2.6
2018-Apr-11 14:00N 37°57' E 023°36'1 2.9
2018-Apr-11 13:30N 37°56' E 023°35'3 6.2
2018-Apr-11 13:00N 37°53' E 023°32'3 4.7
2018-Apr-11 12:25N 37°51' E 023°30'0 0.0
2018-Apr-11 11:58N 37°51' E 023°30'0 0.0
2018-Apr-11 11:28N 37°51' E 023°30'0 0.0
2018-Apr-11 10:59N 37°51' E 023°30'0 0.0
2018-Apr-11 10:30N 37°51' E 023°30'0 0.0
2018-Apr-11 09:53N 37°51' E 023°30'0 0.1
2018-Apr-11 09:29N 37°51' E 023°30'0 0.1
2018-Apr-11 09:00N 37°51' E 023°30'0 0.0
2018-Apr-11 08:30N 37°51' E 023°30'0 0.0
2018-Apr-11 08:00N 37°51' E 023°30'0 0.0
2018-Apr-11 07:29N 37°51' E 023°30'0 0.0
2018-Apr-11 07:00N 37°51' E 023°30'0 0.0
2018-Apr-11 06:30N 37°51' E 023°30'0 0.0
2018-Apr-11 05:59N 37°51' E 023°30'2 3.6
2018-Apr-11 05:30N 37°52' E 023°32'3 6.0
2018-Apr-11 05:00N 37°55' E 023°34'2 4.8
2018-Apr-11 04:30N 37°57' E 023°34'2 4.9
2018-Apr-11 04:00N 37°59' E 023°33'2 3.9
2018-Apr-11 03:24N 38°01' E 023°32'0 0.0
2018-Apr-11 03:00N 38°01' E 023°32'0 0.0
2018-Apr-11 01:33N 38°01' E 023°32'0 0.0
2018-Apr-11 01:15N 38°01' E 023°32'0 0.0
2018-Apr-11 00:54N 38°01' E 023°32'0 0.0
2018-Apr-10 20:45N 38°01' E 023°32'0 0.0
2018-Apr-10 19:36N 38°01' E 023°32'0 0.1
2018-Apr-10 19:27N 38°01' E 023°32'1 2.4
2018-Apr-10 19:00N 38°02' E 023°31'0 0.0
2018-Apr-10 18:30N 38°02' E 023°31'0 0.0
2018-Apr-10 17:54N 38°02' E 023°31'0 0.0
2018-Apr-10 16:24N 38°02' E 023°31'0 0.0
2018-Apr-10 15:54N 38°02' E 023°31'0 0.0
2018-Apr-10 13:24N 38°02' E 023°31'0 0.0
2018-Apr-10 12:36N 38°02' E 023°31'0 0.0
2018-Apr-10 12:24N 38°02' E 023°31'0 0.0
2018-Apr-10 11:54N 38°02' E 023°31'0 0.0
2018-Apr-10 11:06N 38°02' E 023°31'0 0.1
2018-Apr-10 10:52N 38°02' E 023°31'2 5.9
2018-Apr-10 10:30N 38°00' E 023°32'3 6.5
2018-Apr-10 10:00N 37°57' E 023°34'2 4.7
2018-Apr-10 09:30N 37°58' E 023°37'0 0.1
2018-Apr-10 08:57N 37°58' E 023°37'0 0.0
2018-Apr-10 08:28N 37°58' E 023°37'0 0.0
2018-Apr-10 07:58N 37°58' E 023°37'0 0.0
2018-Apr-10 07:28N 37°58' E 023°37'0 0.0
2018-Apr-10 06:58N 37°58' E 023°37'0 0.0
2018-Apr-10 06:28N 37°58' E 023°37'0 0.0
2018-Apr-10 05:58N 37°58' E 023°37'0 0.0
2018-Apr-10 05:28N 37°58' E 023°37'0 0.0
2018-Apr-10 04:58N 37°58' E 023°37'0 0.0
2018-Apr-10 04:28N 37°58' E 023°37'0 0.0
2018-Apr-10 03:58N 37°58' E 023°37'0 0.0
2018-Apr-10 03:28N 37°58' E 023°37'0 0.0
2018-Apr-10 02:58N 37°58' E 023°37'0 0.0
2018-Apr-10 02:28N 37°58' E 023°37'0 0.0
2018-Apr-10 01:55N 37°58' E 023°37'0 0.0
2018-Apr-10 01:28N 37°58' E 023°37'0 0.0
2018-Apr-10 00:58N 37°58' E 023°37'0 0.0
2018-Apr-10 00:28N 37°58' E 023°37'0 0.0
2018-Apr-09 23:58N 37°58' E 023°37'0 0.0
2018-Apr-09 23:28N 37°58' E 023°37'0 0.0
2018-Apr-09 22:58N 37°58' E 023°37'0 0.0
2018-Apr-09 22:25N 37°58' E 023°37'0 0.0
2018-Apr-09 21:58N 37°58' E 023°37'0 0.0
2018-Apr-09 21:28N 37°58' E 023°37'0 0.0
2018-Apr-09 20:58N 37°58' E 023°37'0 0.0
2018-Apr-09 20:28N 37°58' E 023°37'0 0.0
2018-Apr-09 19:58N 37°58' E 023°37'0 0.0
2018-Apr-09 19:28N 37°58' E 023°37'0 0.0
2018-Apr-09 18:55N 37°58' E 023°37'0 0.0
2018-Apr-09 18:28N 37°58' E 023°37'0 0.0
2018-Apr-09 17:58N 37°58' E 023°37'0 0.0
2018-Apr-09 17:25N 37°58' E 023°37'0 0.0
2018-Apr-09 16:58N 37°58' E 023°37'0 0.0
2018-Apr-09 16:28N 37°58' E 023°37'0 0.0
2018-Apr-09 15:58N 37°58' E 023°37'0 0.0
2018-Apr-09 15:25N 37°58' E 023°37'  
Track history (hours):
 
Tides and Currents Weather Stations Pressure Air Temp Water Temp Dewpoint Dewpoint Depression Visibility Wind Speed Wind Dir Waves Ship Positions

Agios_nektarios

Last reported at 2018-Apr-19 15:24 UTC. Time now 2018-Apr-19 15:44 UTC.
Position N 37°56' E 023°38'.

Length 53 m; draft 4.9 m.

Type: Tanker. MMSI: 237183800.

Date/timePositionNaut miles runAvg speedWind from/ knotsBaromVisibWave heightAir tempDewpointWater temp
2018-Apr-19 15:24N 37°56' E 023°38'0 0.2
2018-Apr-19 15:00N 37°56' E 023°38'2 4.8
2018-Apr-19 14:30N 37°57' E 023°35'3 5.1
2018-Apr-19 14:00N 37°59' E 023°33'3 5.9
2018-Apr-19 13:30N 38°01' E 023°35'1 0.2
2018-Apr-19 10:47N 38°02' E 023°36'0 0.0
2018-Apr-19 10:26N 38°02' E 023°36'0 0.0
2018-Apr-19 09:56N 38°02' E 023°36'0 0.0
2018-Apr-19 09:29N 38°02' E 023°36'0 0.0
2018-Apr-19 08:44N 38°02' E 023°36'0 0.0
2018-Apr-19 08:29N 38°02' E 023°36'0 0.0
2018-Apr-19 07:50N 38°02' E 023°36'0 0.0
2018-Apr-19 07:29N 38°02' E 023°36'0 0.0
2018-Apr-19 06:59N 38°02' E 023°36'1 1.3
2018-Apr-19 06:29N 38°02' E 023°35'0 0.1
2018-Apr-19 04:49N 38°02' E 023°35'0 0.0
2018-Apr-19 04:19N 38°02' E 023°35'0 0.1
2018-Apr-19 03:55N 38°02' E 023°35'0 0.0
2018-Apr-19 02:43N 38°02' E 023°35'0 0.0
2018-Apr-19 02:25N 38°02' E 023°35'0 0.0
2018-Apr-19 01:52N 38°02' E 023°35'0 0.0
2018-Apr-19 01:16N 38°02' E 023°35'0 0.0
2018-Apr-19 00:55N 38°02' E 023°35'0 0.0
2018-Apr-19 00:25N 38°02' E 023°35'0 0.0
2018-Apr-18 23:55N 38°02' E 023°35'0 0.0
2018-Apr-18 23:22N 38°02' E 023°35'0 0.0
2018-Apr-18 22:55N 38°02' E 023°35'0 0.0
2018-Apr-18 21:40N 38°02' E 023°35'0 0.0
2018-Apr-18 21:13N 38°02' E 023°35'0 0.0
2018-Apr-18 20:55N 38°02' E 023°35'0 0.0
2018-Apr-18 20:25N 38°02' E 023°35'0 0.0
2018-Apr-18 19:52N 38°02' E 023°35'0 0.0
2018-Apr-18 19:25N 38°02' E 023°35'0 0.0
2018-Apr-18 15:52N 38°02' E 023°35'1 2.9
2018-Apr-18 15:30N 38°01' E 023°34'3 6.8
2018-Apr-18 15:00N 37°57' E 023°33'3 4.7
2018-Apr-18 14:25N 37°58' E 023°37'0 0.0
2018-Apr-18 14:00N 37°58' E 023°37'0 0.0
2018-Apr-18 13:28N 37°58' E 023°37'0 0.0
2018-Apr-18 12:58N 37°58' E 023°37'0 0.0
2018-Apr-18 12:25N 37°58' E 023°37'2 6.1
2018-Apr-18 12:01N 37°56' E 023°34'4 7.4
2018-Apr-18 11:30N 37°52' E 023°33'0 0.3
2018-Apr-18 10:59N 37°52' E 023°33'0 0.0
2018-Apr-18 10:23N 37°52' E 023°33'0 0.0
2018-Apr-18 09:53N 37°52' E 023°33'0 0.1
2018-Apr-18 09:26N 37°52' E 023°33'0 0.0
2018-Apr-18 08:59N 37°52' E 023°33'0 0.2
2018-Apr-18 08:29N 37°52' E 023°33'0 0.1
2018-Apr-18 07:59N 37°52' E 023°33'0 0.0
2018-Apr-18 07:29N 37°52' E 023°33'0 0.2
2018-Apr-18 06:46N 37°52' E 023°33'1 3.4
2018-Apr-18 06:30N 37°53' E 023°33'3 6.6
2018-Apr-18 06:00N 37°56' E 023°35'2 4.4
2018-Apr-18 05:30N 37°58' E 023°37'0 0.0
2018-Apr-18 05:00N 37°58' E 023°37'0 0.0
2018-Apr-18 04:30N 37°58' E 023°37'0 0.0
2018-Apr-18 04:00N 37°58' E 023°37'0 0.0
2018-Apr-18 03:30N 37°58' E 023°37'0 0.0
2018-Apr-18 03:00N 37°58' E 023°37'0 0.0
2018-Apr-18 02:30N 37°58' E 023°37'0 0.0
2018-Apr-18 02:00N 37°58' E 023°37'0 0.0
2018-Apr-18 01:27N 37°58' E 023°37'0 0.0
2018-Apr-18 01:00N 37°58' E 023°37'0 0.0
2018-Apr-18 00:30N 37°58' E 023°37'0 0.0
2018-Apr-18 00:00N 37°58' E 023°37'0 0.0
2018-Apr-17 23:30N 37°58' E 023°37'0 0.0
2018-Apr-17 23:00N 37°58' E 023°37'0 0.0
2018-Apr-17 22:30N 37°58' E 023°37'0 0.0
2018-Apr-17 22:00N 37°58' E 023°37'0 0.0
2018-Apr-17 21:30N 37°58' E 023°37'0 0.0
2018-Apr-17 21:00N 37°58' E 023°37'0 0.0
2018-Apr-17 20:30N 37°58' E 023°37'0 0.0
2018-Apr-17 20:00N 37°58' E 023°37'0 0.0
2018-Apr-17 19:30N 37°58' E 023°37'0 0.0
2018-Apr-17 19:00N 37°58' E 023°37'0 0.0
2018-Apr-17 18:30N 37°58' E 023°37'0 0.0
2018-Apr-17 18:00N 37°58' E 023°37'0 0.0
2018-Apr-17 17:30N 37°58' E 023°37'0 0.0
2018-Apr-17 17:00N 37°58' E 023°37'0 0.0
2018-Apr-17 16:30N 37°58' E 023°37'0 0.0
2018-Apr-17 16:00N 37°58' E 023°37'0 0.0
2018-Apr-17 15:30N 37°58' E 023°37'0 0.0
2018-Apr-17 15:00N 37°58' E 023°37'0 0.0
2018-Apr-17 14:30N 37°58' E 023°37'0 0.0
2018-Apr-17 13:57N 37°58' E 023°37'0 0.0
2018-Apr-17 13:30N 37°58' E 023°37'0 0.0
2018-Apr-17 13:00N 37°58' E 023°37'0 0.0
2018-Apr-17 12:30N 37°58' E 023°37'2 3.1
2018-Apr-17 12:00N 37°57' E 023°35'0 0.0
2018-Apr-17 11:30N 37°57' E 023°35'0 0.0
2018-Apr-17 10:45N 37°57' E 023°35'0 0.0
2018-Apr-17 10:30N 37°57' E 023°35'0 0.0
2018-Apr-17 09:57N 37°57' E 023°35'0 0.0
2018-Apr-17 09:30N 37°57' E 023°35'0 0.0
2018-Apr-17 09:00N 37°57' E 023°35'0 0.0
2018-Apr-17 08:30N 37°57' E 023°35'0 0.0
2018-Apr-17 07:58N 37°57' E 023°35'0 0.5
2018-Apr-17 07:30N 37°57' E 023°35'3 4.7
2018-Apr-17 06:58N 37°57' E 023°38'0 0.0
2018-Apr-17 06:28N 37°57' E 023°38'0 0.0
2018-Apr-17 05:58N 37°57' E 023°38'0 0.0
2018-Apr-17 05:28N 37°57' E 023°38'2 3.6
2018-Apr-17 05:01N 37°57' E 023°36'1 1.7
2018-Apr-17 04:28N 37°58' E 023°37'0 0.0
2018-Apr-17 03:55N 37°58' E 023°37'0 0.0
2018-Apr-17 03:28N 37°58' E 023°37'0 0.0
2018-Apr-17 02:58N 37°58' E 023°37'0 0.0
2018-Apr-17 02:28N 37°58' E 023°37'0 0.0
2018-Apr-17 01:58N 37°58' E 023°37'0 0.0
2018-Apr-17 01:28N 37°58' E 023°37'0 0.0
2018-Apr-17 00:58N 37°58' E 023°37'0 0.0
2018-Apr-17 00:28N 37°58' E 023°37'0 0.0
2018-Apr-16 23:58N 37°58' E 023°37'0 0.0
2018-Apr-16 23:28N 37°58' E 023°37'0 0.0
2018-Apr-16 22:58N 37°58' E 023°37'0 0.0
2018-Apr-16 22:28N 37°58' E 023°37'0 0.0
2018-Apr-16 21:58N 37°58' E 023°37'0 0.0
2018-Apr-16 21:28N 37°58' E 023°37'0 0.0
2018-Apr-16 20:58N 37°58' E 023°37'0 0.0
2018-Apr-16 20:25N 37°58' E 023°37'0 0.0
2018-Apr-16 19:58N 37°58' E 023°37'0 0.0
2018-Apr-16 19:25N 37°58' E 023°37'0 0.0
2018-Apr-16 18:58N 37°58' E 023°37'0 0.0
2018-Apr-16 18:28N 37°58' E 023°37'0 0.0
2018-Apr-16 17:58N 37°58' E 023°37'0 0.0
2018-Apr-16 17:28N 37°58' E 023°37'0 0.0
2018-Apr-16 16:58N 37°58' E 023°37'0 0.0
2018-Apr-16 16:28N 37°58' E 023°37'0 0.0
2018-Apr-16 15:58N 37°58' E 023°37'0 0.0
2018-Apr-16 15:28N 37°58' E 023°37'0 0.0
2018-Apr-16 14:58N 37°58' E 023°37'0 1.0
2018-Apr-16 14:30N 37°57' E 023°36'3 5.4
2018-Apr-16 14:00N 37°58' E 023°33'3 5.2
2018-Apr-16 13:30N 38°00' E 023°32'1 0.6
2018-Apr-16 12:02N 38°01' E 023°32'0 0.2
2018-Apr-16 11:44N 38°01' E 023°32'0 1.3
2018-Apr-16 11:30N 38°01' E 023°32'1 0.9
2018-Apr-16 10:53N 38°01' E 023°31'1 3.5
2018-Apr-16 10:30N 38°00' E 023°32'3 5.7
2018-Apr-16 10:00N 37°57' E 023°33'3 4.7
2018-Apr-16 09:27N 37°57' E 023°37'0 0.2
2018-Apr-16 09:00N 37°58' E 023°37'0 0.0
2018-Apr-16 08:27N 37°58' E 023°37'0 0.0
2018-Apr-16 08:00N 37°58' E 023°37'0 0.0
2018-Apr-16 07:27N 37°58' E 023°37'0 0.0
2018-Apr-16 07:00N 37°58' E 023°37'0 0.0
2018-Apr-16 06:30N 37°58' E 023°37'0 0.0
2018-Apr-16 06:00N 37°58' E 023°37'0 0.0
2018-Apr-14 05:47N 37°57' E 023°36'1 5.2
2018-Apr-14 05:30N 37°57' E 023°35'2 4.8
2018-Apr-14 05:00N 37°59' E 023°33'2 3.1
2018-Apr-14 04:30N 38°00' E 023°34'2 0.3
2018-Apr-13 20:53N 38°02' E 023°36'1 0.1
2018-Apr-13 16:08N 38°02' E 023°35'0 0.0
2018-Apr-13 14:41N 38°02' E 023°35'0 0.8
2018-Apr-13 14:29N 38°02' E 023°35'1 0.8
2018-Apr-13 13:46N 38°01' E 023°35'1 0.2
2018-Apr-13 10:14N 38°02' E 023°35'1 5.3
2018-Apr-13 10:00N 38°01' E 023°34'3 6.7
2018-Apr-13 09:30N 37°57' E 023°33'2 4.1
2018-Apr-13 09:00N 37°57' E 023°36'2 3.5
2018-Apr-13 08:26N 37°57' E 023°38'0 0.0
2018-Apr-13 07:59N 37°57' E 023°38'0 0.0
2018-Apr-13 07:26N 37°57' E 023°38'0 0.0
2018-Apr-13 06:58N 37°57' E 023°38'0 0.0
2018-Apr-13 06:28N 37°57' E 023°38'0 0.0
2018-Apr-13 05:58N 37°57' E 023°38'1 2.4
2018-Apr-13 05:30N 37°56' E 023°37'1 2.3
2018-Apr-13 05:00N 37°58' E 023°37'0 0.0
2018-Apr-13 04:29N 37°58' E 023°37'0 0.0
2018-Apr-13 03:59N 37°58' E 023°37'0 0.0
2018-Apr-13 03:26N 37°58' E 023°37'0 0.0
2018-Apr-13 02:59N 37°58' E 023°37'0 0.0
2018-Apr-13 02:29N 37°58' E 023°37'0 0.0
2018-Apr-13 01:59N 37°58' E 023°37'0 0.0
2018-Apr-13 01:29N 37°58' E 023°37'0 0.0
2018-Apr-13 00:59N 37°58' E 023°37'0 0.0
2018-Apr-13 00:29N 37°58' E 023°37'0 0.0
2018-Apr-12 23:59N 37°58' E 023°37'0 0.0
2018-Apr-12 23:29N 37°58' E 023°37'0 0.0
2018-Apr-12 22:59N 37°58' E 023°37'0 0.0
2018-Apr-12 22:29N 37°58' E 023°37'0 0.0
2018-Apr-12 21:59N 37°58' E 023°37'0 0.0
2018-Apr-12 21:29N 37°58' E 023°37'0 0.0
2018-Apr-12 20:56N 37°58' E 023°37'0 0.0
2018-Apr-12 20:29N 37°58' E 023°37'0 0.0
2018-Apr-12 19:59N 37°58' E 023°37'0 0.0
2018-Apr-12 19:29N 37°58' E 023°37'0 0.0
2018-Apr-12 18:59N 37°58' E 023°37'0 0.0
2018-Apr-12 18:29N 37°58' E 023°37'0 0.0
2018-Apr-12 17:53N 37°58' E 023°37'0 0.0
2018-Apr-12 17:26N 37°58' E 023°37'0 0.0
2018-Apr-12 16:59N 37°58' E 023°37'0 0.0
2018-Apr-12 16:29N 37°58' E 023°37'0 0.1
2018-Apr-12 16:00N 37°57' E 023°37'1 2.3
2018-Apr-12 15:30N 37°56' E 023°37'1 2.1
2018-Apr-12 14:59N 37°57' E 023°38'0 0.0
2018-Apr-12 14:25N 37°57' E 023°38'0 0.0
2018-Apr-12 13:58N 37°57' E 023°38'0 0.0
2018-Apr-12 13:25N 37°57' E 023°38'0 0.0
2018-Apr-12 12:56N 37°57' E 023°38'0 0.0
2018-Apr-12 12:24N 37°57' E 023°38'0 0.2
2018-Apr-12 12:00N 37°57' E 023°38'0 0.0
2018-Apr-12 11:30N 37°57' E 023°38'0 0.0
2018-Apr-12 11:00N 37°57' E 023°38'0 0.0
2018-Apr-12 10:30N 37°57' E 023°38'0 0.0
2018-Apr-12 10:00N 37°57' E 023°38'0 0.0
2018-Apr-12 09:30N 37°57' E 023°38'0 0.2
2018-Apr-12 09:00N 37°57' E 023°38'0 0.0
2018-Apr-12 08:30N 37°57' E 023°38'0 0.0
2018-Apr-12 08:00N 37°57' E 023°38'0 0.0
2018-Apr-12 07:27N 37°57' E 023°38'0 0.1
2018-Apr-12 07:01N 37°57' E 023°38'2 4.7
2018-Apr-12 06:30N 37°57' E 023°35'3 5.2
2018-Apr-12 06:00N 37°59' E 023°33'3 5.7
2018-Apr-12 05:30N 38°01' E 023°35'1 0.2
2018-Apr-12 00:29N 38°02' E 023°36'1 0.1
2018-Apr-11 18:41N 38°02' E 023°35'1 5.2
2018-Apr-11 18:30N 38°01' E 023°34'3 6.3
2018-Apr-11 18:00N 37°58' E 023°33'3 6.2
2018-Apr-11 17:31N 37°57' E 023°36'1 2.8
2018-Apr-11 16:58N 37°57' E 023°38'0 0.0
2018-Apr-11 16:28N 37°57' E 023°38'0 0.0
2018-Apr-11 15:58N 37°57' E 023°38'0 0.0
2018-Apr-11 15:22N 37°57' E 023°38'0 0.0
2018-Apr-11 14:58N 37°57' E 023°38'0 0.2
2018-Apr-11 14:30N 37°57' E 023°38'1 2.6
2018-Apr-11 14:00N 37°57' E 023°36'1 2.9
2018-Apr-11 13:30N 37°56' E 023°35'3 6.2
2018-Apr-11 13:00N 37°53' E 023°32'3 4.7
2018-Apr-11 12:25N 37°51' E 023°30'0 0.0
2018-Apr-11 11:58N 37°51' E 023°30'0 0.0
2018-Apr-11 11:28N 37°51' E 023°30'0 0.0
2018-Apr-11 10:59N 37°51' E 023°30'0 0.0
2018-Apr-11 10:30N 37°51' E 023°30'0 0.0
2018-Apr-11 09:53N 37°51' E 023°30'0 0.1
2018-Apr-11 09:29N 37°51' E 023°30'0 0.1
2018-Apr-11 09:00N 37°51' E 023°30'0 0.0
2018-Apr-11 08:30N 37°51' E 023°30'0 0.0
2018-Apr-11 08:00N 37°51' E 023°30'0 0.0
2018-Apr-11 07:29N 37°51' E 023°30'0 0.0
2018-Apr-11 07:00N 37°51' E 023°30'0 0.0
2018-Apr-11 06:30N 37°51' E 023°30'0 0.0
2018-Apr-11 05:59N 37°51' E 023°30'2 3.6
2018-Apr-11 05:30N 37°52' E 023°32'3 6.0
2018-Apr-11 05:00N 37°55' E 023°34'2 4.8
2018-Apr-11 04:30N 37°57' E 023°34'2 4.9
2018-Apr-11 04:00N 37°59' E 023°33'2 3.9
2018-Apr-11 03:24N 38°01' E 023°32'0 0.0
2018-Apr-11 03:00N 38°01' E 023°32'0 0.0
2018-Apr-11 01:33N 38°01' E 023°32'0 0.0
2018-Apr-11 01:15N 38°01' E 023°32'0 0.0
2018-Apr-11 00:54N 38°01' E 023°32'0 0.0
2018-Apr-10 20:45N 38°01' E 023°32'0 0.0
2018-Apr-10 19:36N 38°01' E 023°32'0 0.1
2018-Apr-10 19:27N 38°01' E 023°32'1 2.4
2018-Apr-10 19:00N 38°02' E 023°31'0 0.0
2018-Apr-10 18:30N 38°02' E 023°31'0 0.0
2018-Apr-10 17:54N 38°02' E 023°31'0 0.0
2018-Apr-10 16:24N 38°02' E 023°31'0 0.0
2018-Apr-10 15:54N 38°02' E 023°31'0 0.0
2018-Apr-10 13:24N 38°02' E 023°31'0 0.0
2018-Apr-10 12:36N 38°02' E 023°31'0 0.0
2018-Apr-10 12:24N 38°02' E 023°31'0 0.0
2018-Apr-10 11:54N 38°02' E 023°31'0 0.0
2018-Apr-10 11:06N 38°02' E 023°31'0 0.1
2018-Apr-10 10:52N 38°02' E 023°31'2 5.9
2018-Apr-10 10:30N 38°00' E 023°32'3 6.5
2018-Apr-10 10:00N 37°57' E 023°34'2 4.7
2018-Apr-10 09:30N 37°58' E 023°37'0 0.1
2018-Apr-10 08:57N 37°58' E 023°37'0 0.0
2018-Apr-10 08:28N 37°58' E 023°37'0 0.0
2018-Apr-10 07:58N 37°58' E 023°37'0 0.0
2018-Apr-10 07:28N 37°58' E 023°37'0 0.0
2018-Apr-10 06:58N 37°58' E 023°37'0 0.0
2018-Apr-10 06:28N 37°58' E 023°37'0 0.0
2018-Apr-10 05:58N 37°58' E 023°37'0 0.0
2018-Apr-10 05:28N 37°58' E 023°37'0 0.0
2018-Apr-10 04:58N 37°58' E 023°37'0 0.0
2018-Apr-10 04:28N 37°58' E 023°37'0 0.0
2018-Apr-10 03:58N 37°58' E 023°37'0 0.0
2018-Apr-10 03:28N 37°58' E 023°37'0 0.0
2018-Apr-10 02:58N 37°58' E 023°37'0 0.0
2018-Apr-10 02:28N 37°58' E 023°37'0 0.0
2018-Apr-10 01:55N 37°58' E 023°37'0 0.0
2018-Apr-10 01:28N 37°58' E 023°37'0 0.0
2018-Apr-10 00:58N 37°58' E 023°37'0 0.0
2018-Apr-10 00:28N 37°58' E 023°37'0 0.0
2018-Apr-09 23:58N 37°58' E 023°37'0 0.0
2018-Apr-09 23:28N 37°58' E 023°37'0 0.0
2018-Apr-09 22:58N 37°58' E 023°37'0 0.0
2018-Apr-09 22:25N 37°58' E 023°37'0 0.0
2018-Apr-09 21:58N 37°58' E 023°37'0 0.0
2018-Apr-09 21:28N 37°58' E 023°37'0 0.0
2018-Apr-09 20:58N 37°58' E 023°37'0 0.0
2018-Apr-09 20:28N 37°58' E 023°37'0 0.0
2018-Apr-09 19:58N 37°58' E 023°37'0 0.0
2018-Apr-09 19:28N 37°58' E 023°37'0 0.0
2018-Apr-09 18:55N 37°58' E 023°37'0 0.0
2018-Apr-09 18:28N 37°58' E 023°37'0 0.0
2018-Apr-09 17:58N 37°58' E 023°37'0 0.0
2018-Apr-09 17:25N 37°58' E 023°37'0 0.0
2018-Apr-09 16:58N 37°58' E 023°37'0 0.0
2018-Apr-09 16:28N 37°58' E 023°37'0 0.0
2018-Apr-09 15:58N 37°58' E 023°37'0 0.0
2018-Apr-09 15:25N 37°58' E 023°37'  

Dump ship's entire track history